sensor_id;sensor_type;location;lat;lon;timestamp;pressure;altitude;pressure_sealevel;temperature;humidity
76434;BME280;65265;53.200;6.080;2023-01-04T00:01:49;101565.03;;;8.21;89.06
76434;BME280;65265;53.200;6.080;2023-01-04T00:06:42;101546.63;;;8.12;90.67
76434;BME280;65265;53.200;6.080;2023-01-04T00:11:34;101530.78;;;8.03;92.03
76434;BME280;65265;53.200;6.080;2023-01-04T00:16:27;101509.69;;;7.91;93.01
76434;BME280;65265;53.200;6.080;2023-01-04T00:21:19;101516.25;;;7.88;93.40
76434;BME280;65265;53.200;6.080;2023-01-04T00:26:15;101504.75;;;7.94;93.50
76434;BME280;65265;53.200;6.080;2023-01-04T00:31:10;101491.34;;;7.97;93.46
76434;BME280;65265;53.200;6.080;2023-01-04T00:36:04;101481.06;;;7.95;93.16
76434;BME280;65265;53.200;6.080;2023-01-04T00:40:56;101466.31;;;8.04;92.66
76434;BME280;65265;53.200;6.080;2023-01-04T00:45:48;101448.22;;;8.00;92.79
76434;BME280;65265;53.200;6.080;2023-01-04T00:50:42;101434.88;;;8.04;92.79
76434;BME280;65265;53.200;6.080;2023-01-04T00:55:33;101418.78;;;8.05;93.17
76434;BME280;65265;53.200;6.080;2023-01-04T01:00:25;101405.19;;;8.04;93.48
76434;BME280;65265;53.200;6.080;2023-01-04T01:05:18;101383.75;;;8.01;93.70
76434;BME280;65265;53.200;6.080;2023-01-04T01:10:09;101392.19;;;8.00;93.91
76434;BME280;65265;53.200;6.080;2023-01-04T01:15:00;101370.59;;;8.08;93.88
76434;BME280;65265;53.200;6.080;2023-01-04T01:19:52;101369.69;;;8.07;94.18
76434;BME280;65265;53.200;6.080;2023-01-04T01:24:45;101342.66;;;8.09;94.36
76434;BME280;65265;53.200;6.080;2023-01-04T01:29:36;101339.84;;;8.05;94.93
76434;BME280;65265;53.200;6.080;2023-01-04T01:34:27;101333.09;;;8.05;95.17
76434;BME280;65265;53.200;6.080;2023-01-04T01:39:19;101323.44;;;8.00;95.65
76434;BME280;65265;53.200;6.080;2023-01-04T01:44:54;101299.09;;;8.05;95.88
76434;BME280;65265;53.200;6.080;2023-01-04T01:49:50;101300.94;;;8.07;96.03
76434;BME280;65265;53.200;6.080;2023-01-04T01:54:45;101306.97;;;8.09;96.33
76434;BME280;65265;53.200;6.080;2023-01-04T01:59:39;101291.63;;;8.08;96.36
76434;BME280;65265;53.200;6.080;2023-01-04T02:04:34;101292.91;;;8.16;96.18
76434;BME280;65265;53.200;6.080;2023-01-04T02:09:29;101278.72;;;8.19;96.37
76434;BME280;65265;53.200;6.080;2023-01-04T02:14:21;101270.63;;;8.12;96.73
76434;BME280;65265;53.200;6.080;2023-01-04T02:19:52;101256.06;;;8.24;96.45
76434;BME280;65265;53.200;6.080;2023-01-04T02:25:05;101240.94;;;8.12;97.08
76434;BME280;65265;53.200;6.080;2023-01-04T02:30:29;101237.09;;;8.19;96.92
76434;BME280;65265;53.200;6.080;2023-01-04T02:35:34;101224.63;;;8.23;97.29
76434;BME280;65265;53.200;6.080;2023-01-04T02:40:35;101232.69;;;8.31;97.46
76434;BME280;65265;53.200;6.080;2023-01-04T02:45:38;101196.47;;;8.36;97.29
76434;BME280;65265;53.200;6.080;2023-01-04T02:50:36;101196.47;;;8.36;97.49
76434;BME280;65265;53.200;6.080;2023-01-04T02:55:34;101193.22;;;8.39;97.26
76434;BME280;65265;53.200;6.080;2023-01-04T03:00:42;101179.97;;;8.46;97.63
76434;BME280;65265;53.200;6.080;2023-01-04T03:06:06;101177.28;;;8.59;97.71
76434;BME280;65265;53.200;6.080;2023-01-04T03:11:08;101168.81;;;8.60;97.97
76434;BME280;65265;53.200;6.080;2023-01-04T03:16:23;101151.31;;;8.66;98.19
76434;BME280;65265;53.200;6.080;2023-01-04T03:21:17;101133.00;;;8.73;98.23
76434;BME280;65265;53.200;6.080;2023-01-04T03:26:14;101129.38;;;8.85;98.52
76434;BME280;65265;53.200;6.080;2023-01-04T03:31:28;101120.69;;;8.98;98.49
76434;BME280;65265;53.200;6.080;2023-01-04T03:36:52;101101.81;;;9.12;98.67
76434;BME280;65265;53.200;6.080;2023-01-04T03:41:47;101118.38;;;9.20;98.82
76434;BME280;65265;53.200;6.080;2023-01-04T03:47:03;101097.84;;;9.34;98.64
76434;BME280;65265;53.200;6.080;2023-01-04T03:52:17;101094.63;;;9.38;98.86
76434;BME280;65265;53.200;6.080;2023-01-04T03:57:10;101106.00;;;9.44;98.59
76434;BME280;65265;53.200;6.080;2023-01-04T04:02:02;101078.97;;;9.48;98.49
76434;BME280;65265;53.200;6.080;2023-01-04T04:06:53;101086.47;;;9.45;98.39
76434;BME280;65265;53.200;6.080;2023-01-04T04:12:04;101068.81;;;9.49;98.36
76434;BME280;65265;53.200;6.080;2023-01-04T04:16:56;101068.81;;;9.49;98.31
76434;BME280;65265;53.200;6.080;2023-01-04T04:21:47;101046.81;;;9.51;98.46
76434;BME280;65265;53.200;6.080;2023-01-04T04:26:38;101040.72;;;9.49;98.62
76434;BME280;65265;53.200;6.080;2023-01-04T04:31:31;101035.09;;;9.56;98.75
76434;BME280;65265;53.200;6.080;2023-01-04T04:36:23;101040.50;;;9.62;98.53
76434;BME280;65265;53.200;6.080;2023-01-04T04:41:15;101032.84;;;9.62;98.86
76434;BME280;65265;53.200;6.080;2023-01-04T04:46:24;101032.25;;;9.68;98.66
76434;BME280;65265;53.200;6.080;2023-01-04T04:51:17;101028.00;;;9.68;98.61
76434;BME280;65265;53.200;6.080;2023-01-04T04:56:09;101010.34;;;9.73;98.77
76434;BME280;65265;53.200;6.080;2023-01-04T05:01:01;101031.00;;;9.77;98.67
76434;BME280;65265;53.200;6.080;2023-01-04T05:05:52;101050.53;;;9.77;98.50
76434;BME280;65265;53.200;6.080;2023-01-04T05:10:45;101042.81;;;9.75;98.26
76434;BME280;65265;53.200;6.080;2023-01-04T05:15:38;101039.88;;;9.85;98.54
76434;BME280;65265;53.200;6.080;2023-01-04T05:20:30;101027.84;;;9.83;98.77
76434;BME280;65265;53.200;6.080;2023-01-04T05:25:22;101020.84;;;9.79;98.82
76434;BME280;65265;53.200;6.080;2023-01-04T05:30:16;101022.00;;;9.85;98.83
76434;BME280;65265;53.200;6.080;2023-01-04T05:35:25;101001.81;;;9.91;99.05
76434;BME280;65265;53.200;6.080;2023-01-04T05:40:18;100998.53;;;9.94;98.82
76434;BME280;65265;53.200;6.080;2023-01-04T05:45:10;100990.78;;;9.92;99.00
76434;BME280;65265;53.200;6.080;2023-01-04T05:50:04;100994.31;;;9.94;98.75
76434;BME280;65265;53.200;6.080;2023-01-04T05:54:55;100998.75;;;9.98;98.81
76434;BME280;65265;53.200;6.080;2023-01-04T05:59:47;100976.69;;;10.00;98.71
76434;BME280;65265;53.200;6.080;2023-01-04T06:04:39;101009.91;;;10.00;98.65
76434;BME280;65265;53.200;6.080;2023-01-04T06:09:32;101014.16;;;10.00;98.54
76434;BME280;65265;53.200;6.080;2023-01-04T06:14:23;101017.50;;;9.99;98.66
76434;BME280;65265;53.200;6.080;2023-01-04T06:19:15;101030.25;;;9.99;98.78
76434;BME280;65265;53.200;6.080;2023-01-04T06:24:06;101010.78;;;10.01;98.78
76434;BME280;65265;53.200;6.080;2023-01-04T06:28:59;101006.03;;;10.08;98.80
76434;BME280;65265;53.200;6.080;2023-01-04T06:33:50;101008.31;;;10.21;98.80
76434;BME280;65265;53.200;6.080;2023-01-04T06:38:42;101014.66;;;10.29;98.65
76434;BME280;65265;53.200;6.080;2023-01-04T06:43:33;101004.44;;;10.29;98.54
76434;BME280;65265;53.200;6.080;2023-01-04T06:48:26;100997.88;;;10.36;98.46
76434;BME280;65265;53.200;6.080;2023-01-04T06:53:17;100988.72;;;10.41;97.90
76434;BME280;65265;53.200;6.080;2023-01-04T06:58:09;100986.34;;;10.45;97.70
76434;BME280;65265;53.200;6.080;2023-01-04T07:03:00;100983.00;;;10.46;97.29
76434;BME280;65265;53.200;6.080;2023-01-04T07:07:54;100983.09;;;10.49;97.04
76434;BME280;65265;53.200;6.080;2023-01-04T07:12:45;100974.78;;;10.53;97.10
76434;BME280;65265;53.200;6.080;2023-01-04T07:17:36;100960.91;;;10.48;97.67
76434;BME280;65265;53.200;6.080;2023-01-04T07:22:29;100954.94;;;10.48;97.79
76434;BME280;65265;53.200;6.080;2023-01-04T07:27:22;100959.84;;;10.43;97.85
76434;BME280;65265;53.200;6.080;2023-01-04T07:32:14;100964.03;;;10.41;97.79
76434;BME280;65265;53.200;6.080;2023-01-04T07:37:06;100946.00;;;10.38;97.99
76434;BME280;65265;53.200;6.080;2023-01-04T07:41:58;100947.69;;;10.38;98.26
76434;BME280;65265;53.200;6.080;2023-01-04T07:46:51;100942.47;;;10.35;98.29
76434;BME280;65265;53.200;6.080;2023-01-04T07:51:42;100946.81;;;10.37;98.00
76434;BME280;65265;53.200;6.080;2023-01-04T07:56:34;100947.56;;;10.35;98.32
76434;BME280;65265;53.200;6.080;2023-01-04T08:01:26;100951.91;;;10.37;98.55
76434;BME280;65265;53.200;6.080;2023-01-04T08:06:20;100963.22;;;10.42;98.27
76434;BME280;65265;53.200;6.080;2023-01-04T08:11:14;100969.16;;;10.41;98.42
76434;BME280;65265;53.200;6.080;2023-01-04T08:16:06;100961.72;;;10.47;98.66
76434;BME280;65265;53.200;6.080;2023-01-04T08:21:02;100957.53;;;10.49;98.52
76434;BME280;65265;53.200;6.080;2023-01-04T08:25:55;100961.69;;;10.46;98.45
76434;BME280;65265;53.200;6.080;2023-01-04T08:30:51;100966.63;;;10.43;98.63
76434;BME280;65265;53.200;6.080;2023-01-04T08:35:43;100975.19;;;10.43;98.68
76434;BME280;65265;53.200;6.080;2023-01-04T08:40:34;100977.75;;;10.43;98.84
76434;BME280;65265;53.200;6.080;2023-01-04T08:45:27;100967.53;;;10.43;98.92
76434;BME280;65265;53.200;6.080;2023-01-04T08:50:19;100974.50;;;10.47;98.91
76434;BME280;65265;53.200;6.080;2023-01-04T08:55:10;100974.78;;;10.53;98.54
76434;BME280;65265;53.200;6.080;2023-01-04T09:00:02;100966.28;;;10.54;98.26
76434;BME280;65265;53.200;6.080;2023-01-04T09:04:57;100973.06;;;10.54;98.25
76434;BME280;65265;53.200;6.080;2023-01-04T09:09:52;100979.28;;;10.59;98.37
76434;BME280;65265;53.200;6.080;2023-01-04T09:14:43;100978.53;;;10.61;97.88
76434;BME280;65265;53.200;6.080;2023-01-04T09:19:35;100975.28;;;10.65;97.95
76434;BME280;65265;53.200;6.080;2023-01-04T09:24:31;100978.84;;;10.69;97.98
76434;BME280;65265;53.200;6.080;2023-01-04T09:29:22;100974.84;;;10.75;97.76
76434;BME280;65265;53.200;6.080;2023-01-04T09:34:15;100994.19;;;10.69;97.46
76434;BME280;65265;53.200;6.080;2023-01-04T09:39:06;100982.41;;;10.72;97.59
76434;BME280;65265;53.200;6.080;2023-01-04T09:44:01;100991.94;;;10.76;97.30
76434;BME280;65265;53.200;6.080;2023-01-04T09:48:56;100983.72;;;10.83;97.17
76434;BME280;65265;53.200;6.080;2023-01-04T09:53:57;100970.31;;;10.89;97.20
76434;BME280;65265;53.200;6.080;2023-01-04T09:58:52;100992.00;;;10.98;96.39
76434;BME280;65265;53.200;6.080;2023-01-04T10:03:52;100995.59;;;11.03;96.28
76434;BME280;65265;53.200;6.080;2023-01-04T10:08:45;100976.88;;;11.04;96.31
76434;BME280;65265;53.200;6.080;2023-01-04T10:13:49;100988.09;;;11.08;96.14
76434;BME280;65265;53.200;6.080;2023-01-04T10:18:51;100973.19;;;11.18;96.00
76434;BME280;65265;53.200;6.080;2023-01-04T10:23:52;100971.28;;;11.13;95.66
76434;BME280;65265;53.200;6.080;2023-01-04T10:29:22;100976.59;;;11.19;95.45
76434;BME280;65265;53.200;6.080;2023-01-04T10:34:23;100972.75;;;11.28;95.31
76434;BME280;65265;53.200;6.080;2023-01-04T10:39:17;100968.00;;;11.39;94.82
76434;BME280;65265;53.200;6.080;2023-01-04T10:44:15;100979.25;;;11.42;94.59
76434;BME280;65265;53.200;6.080;2023-01-04T10:49:10;100950.34;;;11.45;94.54
76434;BME280;65265;53.200;6.080;2023-01-04T10:54:11;100954.09;;;11.54;93.99
76434;BME280;65265;53.200;6.080;2023-01-04T10:59:09;100929.06;;;11.47;93.83
76434;BME280;65265;53.200;6.080;2023-01-04T11:04:08;100925.75;;;11.50;93.90
76434;BME280;65265;53.200;6.080;2023-01-04T11:09:05;100940.47;;;11.55;93.50
76434;BME280;65265;53.200;6.080;2023-01-04T11:13:57;100918.38;;;11.57;93.80
76434;BME280;65265;53.200;6.080;2023-01-04T11:18:50;100923.38;;;11.54;94.25
76434;BME280;65265;53.200;6.080;2023-01-04T11:23:41;100925.69;;;11.48;94.81
76434;BME280;65265;53.200;6.080;2023-01-04T11:28:38;100924.50;;;11.39;94.63
76434;BME280;65265;53.200;6.080;2023-01-04T11:33:50;100916.81;;;11.39;94.85
76434;BME280;65265;53.200;6.080;2023-01-04T11:38:43;100913.34;;;11.38;94.92
76434;BME280;65265;53.200;6.080;2023-01-04T11:43:57;100918.97;;;11.50;94.17
76434;BME280;65265;53.200;6.080;2023-01-04T11:48:49;100929.31;;;11.53;93.85
76434;BME280;65265;53.200;6.080;2023-01-04T11:53:41;100922.69;;;11.58;92.93
76434;BME280;65265;53.200;6.080;2023-01-04T11:58:33;100920.09;;;11.57;92.91
76434;BME280;65265;53.200;6.080;2023-01-04T12:03:28;100904.75;;;11.58;93.07
76434;BME280;65265;53.200;6.080;2023-01-04T12:08:27;100901.44;;;11.61;92.76
76434;BME280;65265;53.200;6.080;2023-01-04T12:13:19;100896.22;;;11.58;92.94
76434;BME280;65265;53.200;6.080;2023-01-04T12:18:15;100895.41;;;11.59;92.95
76434;BME280;65265;53.200;6.080;2023-01-04T12:23:11;100870.50;;;11.56;92.88
76434;BME280;65265;53.200;6.080;2023-01-04T12:28:04;100859.53;;;11.59;92.70
76434;BME280;65265;53.200;6.080;2023-01-04T12:32:55;100860.09;;;11.52;92.59
76434;BME280;65265;53.200;6.080;2023-01-04T12:37:47;100880.59;;;11.52;92.63
76434;BME280;65265;53.200;6.080;2023-01-04T12:43:16;100878.84;;;11.51;92.37
76434;BME280;65265;53.200;6.080;2023-01-04T12:48:32;100881.13;;;11.43;92.56
76434;BME280;65265;53.200;6.080;2023-01-04T12:53:53;100897.22;;;11.39;92.76
76434;BME280;65265;53.200;6.080;2023-01-04T12:59:06;100898.63;;;11.33;92.79
76434;BME280;65265;53.200;6.080;2023-01-04T13:04:00;100878.41;;;11.39;92.79
76434;BME280;65265;53.200;6.080;2023-01-04T13:08:52;100907.28;;;11.35;92.64
76434;BME280;65265;53.200;6.080;2023-01-04T13:13:48;100897.69;;;11.29;92.87
76434;BME280;65265;53.200;6.080;2023-01-04T13:18:48;100895.13;;;11.29;92.47
76434;BME280;65265;53.200;6.080;2023-01-04T13:23:47;100900.28;;;11.31;92.56
76434;BME280;65265;53.200;6.080;2023-01-04T13:28:39;100905.53;;;11.34;91.47
76434;BME280;65265;53.200;6.080;2023-01-04T13:33:31;100896.03;;;11.31;91.22
76434;BME280;65265;53.200;6.080;2023-01-04T13:38:25;100892.56;;;11.29;90.55
76434;BME280;65265;53.200;6.080;2023-01-04T13:43:34;100895.94;;;11.28;90.19
76434;BME280;65265;53.200;6.080;2023-01-04T13:48:34;100887.13;;;11.22;89.79
76434;BME280;65265;53.200;6.080;2023-01-04T13:53:30;100894.69;;;11.19;89.83
76434;BME280;65265;53.200;6.080;2023-01-04T13:58:24;100881.16;;;11.21;89.78
76434;BME280;65265;53.200;6.080;2023-01-04T14:03:31;100886.16;;;11.18;89.98
76434;BME280;65265;53.200;6.080;2023-01-04T14:08:31;100878.75;;;11.26;89.23
76434;BME280;65265;53.200;6.080;2023-01-04T14:13:25;100883.00;;;11.25;89.02
76434;BME280;65265;53.200;6.080;2023-01-04T14:18:25;100901.69;;;11.23;89.46
76434;BME280;65265;53.200;6.080;2023-01-04T14:23:31;100898.97;;;11.18;89.07
76434;BME280;65265;53.200;6.080;2023-01-04T14:28:32;100897.84;;;11.12;88.98
76434;BME280;65265;53.200;6.080;2023-01-04T14:33:29;100884.88;;;11.07;89.18
76434;BME280;65265;53.200;6.080;2023-01-04T14:38:21;100891.75;;;11.08;88.77
76434;BME280;65265;53.200;6.080;2023-01-04T14:43:33;100895.97;;;11.08;88.42
76434;BME280;65265;53.200;6.080;2023-01-04T14:48:27;100899.16;;;11.02;89.00
76434;BME280;65265;53.200;6.080;2023-01-04T14:53:18;100901.72;;;11.02;89.01
76434;BME280;65265;53.200;6.080;2023-01-04T14:58:10;100913.59;;;11.00;89.04
76434;BME280;65265;53.200;6.080;2023-01-04T15:03:03;100898.34;;;11.03;88.49
76434;BME280;65265;53.200;6.080;2023-01-04T15:07:55;100912.84;;;11.03;88.59
76434;BME280;65265;53.200;6.080;2023-01-04T15:12:46;100913.72;;;11.03;88.63
76434;BME280;65265;53.200;6.080;2023-01-04T15:17:37;100899.88;;;10.98;89.00
76434;BME280;65265;53.200;6.080;2023-01-04T15:22:30;100891.22;;;10.95;89.26
76434;BME280;65265;53.200;6.080;2023-01-04T15:27:22;100905.75;;;10.96;89.66
76434;BME280;65265;53.200;6.080;2023-01-04T15:32:13;100899.63;;;10.92;89.37
76434;BME280;65265;53.200;6.080;2023-01-04T15:37:04;100885.88;;;10.89;89.50
76434;BME280;65265;53.200;6.080;2023-01-04T15:41:57;100906.25;;;10.87;89.73
76434;BME280;65265;53.200;6.080;2023-01-04T15:47:06;100918.16;;;10.87;89.15
76434;BME280;65265;53.200;6.080;2023-01-04T15:51:58;100901.03;;;10.84;88.85
76434;BME280;65265;53.200;6.080;2023-01-04T15:56:50;100907.53;;;10.76;89.03
76434;BME280;65265;53.200;6.080;2023-01-04T16:01:42;100899.03;;;10.77;88.58
76434;BME280;65265;53.200;6.080;2023-01-04T16:06:34;100901.53;;;10.76;88.52
76434;BME280;65265;53.200;6.080;2023-01-04T16:11:25;100911.91;;;10.79;88.16
76434;BME280;65265;53.200;6.080;2023-01-04T16:16:19;100927.09;;;10.76;88.23
76434;BME280;65265;53.200;6.080;2023-01-04T16:21:13;100916.13;;;10.78;88.13
76434;BME280;65265;53.200;6.080;2023-01-04T16:26:08;100909.16;;;10.74;88.30
76434;BME280;65265;53.200;6.080;2023-01-04T16:31:00;100894.03;;;10.80;88.21
76434;BME280;65265;53.200;6.080;2023-01-04T16:35:58;100889.91;;;10.84;87.64
76434;BME280;65265;53.200;6.080;2023-01-04T16:40:57;100924.09;;;10.86;87.29
76434;BME280;65265;53.200;6.080;2023-01-04T16:45:48;100909.53;;;10.83;89.11
76434;BME280;65265;53.200;6.080;2023-01-04T16:50:40;100901.22;;;10.68;89.74
76434;BME280;65265;53.200;6.080;2023-01-04T16:55:32;100906.97;;;10.63;90.40
76434;BME280;65265;53.200;6.080;2023-01-04T17:00:25;100906.59;;;10.54;91.55
76434;BME280;65265;53.200;6.080;2023-01-04T17:05:16;100900.34;;;10.47;92.06
76434;BME280;65265;53.200;6.080;2023-01-04T17:10:08;100901.16;;;10.46;91.96
76434;BME280;65265;53.200;6.080;2023-01-04T17:14:59;100906.41;;;10.49;92.03
76434;BME280;65265;53.200;6.080;2023-01-04T17:19:52;100911.78;;;10.55;91.55
76434;BME280;65265;53.200;6.080;2023-01-04T17:24:44;100907.47;;;10.54;90.97
76434;BME280;65265;53.200;6.080;2023-01-04T17:29:36;100927.94;;;10.54;91.59
76434;BME280;65265;53.200;6.080;2023-01-04T17:34:27;100926.00;;;10.49;91.86
76434;BME280;65265;53.200;6.080;2023-01-04T17:39:20;100921.59;;;10.45;92.65
76434;BME280;65265;53.200;6.080;2023-01-04T17:44:11;100924.00;;;10.42;92.76
76434;BME280;65265;53.200;6.080;2023-01-04T17:49:05;100934.72;;;10.33;92.43
76434;BME280;65265;53.200;6.080;2023-01-04T17:53:59;100939.13;;;10.37;91.54
76434;BME280;65265;53.200;6.080;2023-01-04T17:58:52;100932.28;;;10.36;90.29
76434;BME280;65265;53.200;6.080;2023-01-04T18:03:46;100947.41;;;10.32;89.72
76434;BME280;65265;53.200;6.080;2023-01-04T18:08:38;100926.13;;;10.31;89.42
76434;BME280;65265;53.200;6.080;2023-01-04T18:13:31;100941.56;;;10.34;88.32
76434;BME280;65265;53.200;6.080;2023-01-04T18:18:25;100938.69;;;10.27;88.16
76434;BME280;65265;53.200;6.080;2023-01-04T18:23:17;100940.22;;;10.22;87.95
76434;BME280;65265;53.200;6.080;2023-01-04T18:28:08;100948.91;;;10.06;89.76
76434;BME280;65265;53.200;6.080;2023-01-04T18:33:00;100964.03;;;10.02;90.37
76434;BME280;65265;53.200;6.080;2023-01-04T18:37:52;100965.66;;;10.01;91.07
76434;BME280;65265;53.200;6.080;2023-01-04T18:42:45;100977.81;;;10.05;90.54
76434;BME280;65265;53.200;6.080;2023-01-04T18:47:36;100961.88;;;10.11;89.57
76434;BME280;65265;53.200;6.080;2023-01-04T18:52:28;100949.94;;;10.11;89.58
76434;BME280;65265;53.200;6.080;2023-01-04T18:57:21;100955.34;;;10.17;88.82
76434;BME280;65265;53.200;6.080;2023-01-04T19:02:15;100947.88;;;10.22;88.48
76434;BME280;65265;53.200;6.080;2023-01-04T19:07:08;100943.41;;;10.18;88.62
76434;BME280;65265;53.200;6.080;2023-01-04T19:12:02;100948.72;;;10.22;88.15
76434;BME280;65265;53.200;6.080;2023-01-04T19:16:55;100946.16;;;10.22;88.22
76434;BME280;65265;53.200;6.080;2023-01-04T19:21:47;100967.56;;;10.24;88.02
76434;BME280;65265;53.200;6.080;2023-01-04T19:26:38;100963.44;;;10.28;88.70
76434;BME280;65265;53.200;6.080;2023-01-04T19:31:30;100973.22;;;10.17;89.95
76434;BME280;65265;53.200;6.080;2023-01-04T19:36:23;100980.09;;;10.18;89.15
76434;BME280;65265;53.200;6.080;2023-01-04T19:41:17;100976.72;;;10.19;88.96
76434;BME280;65265;53.200;6.080;2023-01-04T19:46:13;100974.91;;;10.17;88.88
76434;BME280;65265;53.200;6.080;2023-01-04T19:51:07;100992.88;;;10.18;88.77
76434;BME280;65265;53.200;6.080;2023-01-04T19:56:01;100997.28;;;10.22;88.40
76434;BME280;65265;53.200;6.080;2023-01-04T20:00:53;100989.81;;;10.27;88.70
76434;BME280;65265;53.200;6.080;2023-01-04T20:05:44;101013.31;;;10.18;89.33
76434;BME280;65265;53.200;6.080;2023-01-04T20:10:36;101008.25;;;10.20;88.60
76434;BME280;65265;53.200;6.080;2023-01-04T20:15:29;101025.81;;;10.12;89.25
76434;BME280;65265;53.200;6.080;2023-01-04T20:20:20;101016.47;;;10.13;90.14
76434;BME280;65265;53.200;6.080;2023-01-04T20:25:12;101034.03;;;10.05;90.72
76434;BME280;65265;53.200;6.080;2023-01-04T20:30:05;101040.13;;;10.09;90.43
76434;BME280;65265;53.200;6.080;2023-01-04T20:34:58;101031.00;;;10.14;90.08
76434;BME280;65265;53.200;6.080;2023-01-04T20:39:51;101029.16;;;10.11;89.61
76434;BME280;65265;53.200;6.080;2023-01-04T20:44:45;101033.94;;;10.04;90.98
76434;BME280;65265;53.200;6.080;2023-01-04T20:49:37;101028.47;;;9.96;91.51
76434;BME280;65265;53.200;6.080;2023-01-04T20:54:33;101035.03;;;9.91;91.05
76434;BME280;65265;53.200;6.080;2023-01-04T20:59:36;101035.84;;;9.90;90.94
76434;BME280;65265;53.200;6.080;2023-01-04T21:04:28;101043.47;;;9.89;91.31
76434;BME280;65265;53.200;6.080;2023-01-04T21:09:21;101051.03;;;9.87;91.41
76434;BME280;65265;53.200;6.080;2023-01-04T21:14:13;101053.16;;;9.78;92.42
76434;BME280;65265;53.200;6.080;2023-01-04T21:19:05;101059.06;;;9.77;92.46
76434;BME280;65265;53.200;6.080;2023-01-04T21:24:07;101067.47;;;9.75;92.80
76434;BME280;65265;53.200;6.080;2023-01-04T21:28:58;101073.50;;;9.77;92.17
76434;BME280;65265;53.200;6.080;2023-01-04T21:33:57;101083.81;;;9.78;92.52
76434;BME280;65265;53.200;6.080;2023-01-04T21:38:50;101085.94;;;9.69;92.61
76434;BME280;65265;53.200;6.080;2023-01-04T21:43:42;101085.72;;;9.65;91.82
76434;BME280;65265;53.200;6.080;2023-01-04T21:48:34;101091.97;;;9.71;91.18
76434;BME280;65265;53.200;6.080;2023-01-04T21:53:28;101088.84;;;9.77;90.33
76434;BME280;65265;53.200;6.080;2023-01-04T21:58:20;101106.66;;;9.75;90.51
76434;BME280;65265;53.200;6.080;2023-01-04T22:03:13;101095.34;;;9.70;91.70
76434;BME280;65265;53.200;6.080;2023-01-04T22:08:06;101110.97;;;9.59;92.66
76434;BME280;65265;53.200;6.080;2023-01-04T22:12:59;101120.16;;;9.55;92.79
76434;BME280;65265;53.200;6.080;2023-01-04T22:17:51;101112.41;;;9.54;91.82
76434;BME280;65265;53.200;6.080;2023-01-04T22:22:42;101124.38;;;9.55;91.37
76434;BME280;65265;53.200;6.080;2023-01-04T22:27:34;101124.09;;;9.49;91.81
76434;BME280;65265;53.200;6.080;2023-01-04T22:32:27;101140.00;;;9.43;92.59
76434;BME280;65265;53.200;6.080;2023-01-04T22:37:18;101144.31;;;9.44;92.53
76434;BME280;65265;53.200;6.080;2023-01-04T22:42:10;101148.38;;;9.41;93.11
76434;BME280;65265;53.200;6.080;2023-01-04T22:47:02;101156.59;;;9.36;93.60
76434;BME280;65265;53.200;6.080;2023-01-04T22:51:54;101154.72;;;9.32;93.90
76434;BME280;65265;53.200;6.080;2023-01-04T22:56:46;101168.28;;;9.31;93.76
76434;BME280;65265;53.200;6.080;2023-01-04T23:01:38;101170.16;;;9.35;93.11
76434;BME280;65265;53.200;6.080;2023-01-04T23:06:31;101184.41;;;9.30;93.01
76434;BME280;65265;53.200;6.080;2023-01-04T23:11:25;101189.31;;;9.27;93.60
76434;BME280;65265;53.200;6.080;2023-01-04T23:16:17;101212.09;;;9.22;94.11
76434;BME280;65265;53.200;6.080;2023-01-04T23:21:09;101213.41;;;9.16;94.36
76434;BME280;65265;53.200;6.080;2023-01-04T23:26:03;101202.22;;;9.12;94.66
76434;BME280;65265;53.200;6.080;2023-01-04T23:31:00;101213.13;;;9.10;94.65
76434;BME280;65265;53.200;6.080;2023-01-04T23:35:51;101212.81;;;9.04;95.04
76434;BME280;65265;53.200;6.080;2023-01-04T23:40:45;101221.25;;;9.03;95.21
76434;BME280;65265;53.200;6.080;2023-01-04T23:45:37;101216.09;;;9.01;95.09
76434;BME280;65265;53.200;6.080;2023-01-04T23:50:30;101226.34;;;9.03;95.02
76434;BME280;65265;53.200;6.080;2023-01-04T23:55:21;101228.75;;;9.00;95.55
